Time;durP1;ratioP1;P1;durP2;ratioP2;P2;SDS_P1;SDS_P2;PMS_P1;PMS_P2;Temp;Humidity;BMP_temperature;BMP_pressure;BME280_temperature;BME280_humidity;BME280_pressure;Samples;Min_cycle;Max_cycle;Signal;HPM_P1;HPM_P2
2022/01/02 00:02:03;;;;;;;10.17;6.10;;;11.90;99.90;;;;;;5011101;28;20499;-81
2022/01/02 00:04:35;;;;;;;11.40;6.60;;;11.80;99.90;;;;;;4996723;28;20077;-81
2022/01/02 00:07:05;;;;;;;10.60;5.97;;;11.80;99.90;;;;;;5028644;28;20476;-81
2022/01/02 00:09:32;;;;;;;9.83;5.83;;;11.80;99.90;;;;;;5012419;28;20043;-81
2022/01/02 00:12:07;;;;;;;12.03;6.03;;;11.80;99.90;;;;;;5011050;28;20100;-81
2022/01/02 00:14:37;;;;;;;11.40;6.30;;;11.80;99.90;;;;;;4975936;28;20423;-80
2022/01/02 00:17:04;;;;;;;10.33;6.57;;;11.80;99.90;;;;;;4994493;28;20099;-81
2022/01/02 00:19:33;;;;;;;15.13;6.40;;;11.80;99.90;;;;;;5007131;28;20057;-82
2022/01/02 00:22:01;;;;;;;14.10;6.63;;;11.80;99.90;;;;;;5011260;28;20471;-80
2022/01/02 00:24:29;;;;;;;12.13;6.03;;;11.80;99.90;;;;;;4973552;28;20511;-81
2022/01/02 00:26:56;;;;;;;13.00;6.53;;;11.80;99.90;;;;;;5008366;28;20048;-81
2022/01/02 00:29:22;;;;;;;11.43;5.87;;;11.80;99.90;;;;;;5024827;28;20045;-81
2022/01/02 00:31:48;;;;;;;16.57;7.17;;;11.70;99.90;;;;;;5022854;28;20038;-81
2022/01/02 00:34:15;;;;;;;9.97;6.03;;;11.70;99.90;;;;;;4977258;28;20053;-80
2022/01/02 00:36:42;;;;;;;14.60;6.27;;;11.70;99.90;;;;;;5010828;28;20104;-81
2022/01/02 00:39:08;;;;;;;14.93;6.17;;;11.70;99.90;;;;;;5019668;28;20527;-81
2022/01/02 00:41:40;;;;;;;14.67;6.80;;;11.70;99.90;;;;;;4993173;28;20038;-80
2022/01/02 00:44:16;;;;;;;12.57;6.63;;;11.70;99.90;;;;;;4994998;28;20133;-81
2022/01/02 00:46:51;;;;;;;17.50;6.83;;;11.70;99.90;;;;;;5009428;28;20129;-82
2022/01/02 00:49:24;;;;;;;13.77;6.67;;;11.60;99.90;;;;;;5010786;28;20068;-80
2022/01/02 00:51:58;;;;;;;12.02;6.72;;;11.60;99.90;;;;;;5019439;28;20038;-80
2022/01/02 00:54:28;;;;;;;14.20;7.00;;;11.60;99.90;;;;;;5026233;28;20068;-80
2022/01/02 00:57:02;;;;;;;14.20;6.70;;;11.60;99.90;;;;;;5060315;23;20049;-80
2022/01/02 00:59:30;;;;;;;13.87;6.97;;;11.60;99.90;;;;;;4990581;28;20137;-81
2022/01/02 01:02:02;;;;;;;13.57;6.80;;;11.60;99.90;;;;;;4993347;28;20045;-79
2022/01/02 01:04:31;;;;;;;11.93;6.77;;;11.60;99.90;;;;;;4992058;28;20519;-80
2022/01/02 01:07:02;;;;;;;14.57;7.20;;;11.60;99.90;;;;;;5009427;28;20034;-81
2022/01/02 01:09:30;;;;;;;12.93;7.10;;;11.60;99.90;;;;;;4992914;28;20503;-80
2022/01/02 01:11:57;;;;;;;10.83;6.70;;;11.60;99.90;;;;;;4961316;28;20407;-81
2022/01/02 01:14:23;;;;;;;13.50;6.30;;;11.60;99.90;;;;;;5009966;28;20063;-81
2022/01/02 01:16:49;;;;;;;12.13;6.43;;;11.60;99.90;;;;;;5024886;28;20038;-81
2022/01/02 01:19:20;;;;;;;13.60;7.03;;;11.70;99.90;;;;;;4989641;28;20089;-81
2022/01/02 01:21:46;;;;;;;13.30;6.53;;;11.70;99.90;;;;;;4993239;28;20135;-81
2022/01/02 01:24:13;;;;;;;16.10;7.13;;;11.70;99.90;;;;;;5008903;28;20504;-81
2022/01/02 01:26:40;;;;;;;15.60;7.33;;;11.70;99.90;;;;;;4982986;28;20077;-80
2022/01/02 01:29:06;;;;;;;14.80;7.60;;;11.70;99.90;;;;;;4964679;28;20061;-82
2022/01/02 01:31:33;;;;;;;16.90;6.77;;;11.70;99.90;;;;;;4990697;28;20136;-79
2022/01/02 01:33:58;;;;;;;14.43;7.17;;;11.70;99.90;;;;;;4970137;28;20140;-80
2022/01/02 01:36:24;;;;;;;13.87;6.93;;;11.70;99.90;;;;;;4977665;28;20069;-81
2022/01/02 01:38:50;;;;;;;16.17;7.10;;;11.70;99.90;;;;;;5010545;28;20054;-80
2022/01/02 01:41:25;;;;;;;15.60;6.87;;;11.70;99.90;;;;;;4975458;28;20507;-82
2022/01/02 01:44:06;;;;;;;12.37;6.60;;;11.70;99.90;;;;;;4995064;28;20085;-81
2022/01/02 01:46:33;;;;;;;15.37;7.13;;;11.60;99.90;;;;;;4994149;28;20108;-80
2022/01/02 01:48:59;;;;;;;15.63;7.50;;;11.60;99.90;;;;;;4993093;28;20045;-80
2022/01/02 01:51:25;;;;;;;16.17;7.40;;;11.60;99.90;;;;;;4974984;28;20415;-81
2022/01/02 01:53:51;;;;;;;20.53;7.67;;;11.60;99.90;;;;;;4978093;28;20053;-80
2022/01/02 01:56:19;;;;;;;14.60;7.70;;;11.60;99.90;;;;;;5006734;28;20452;-80
2022/01/02 01:58:45;;;;;;;12.73;6.83;;;11.60;99.90;;;;;;4991512;28;20092;-81
2022/01/02 02:01:10;;;;;;;15.27;7.13;;;11.60;99.90;;;;;;4992028;28;20050;-81
2022/01/02 02:03:47;;;;;;;17.80;6.97;;;11.60;99.90;;;;;;4991857;28;20041;-81
2022/01/02 02:06:14;;;;;;;12.83;6.57;;;11.70;99.90;;;;;;4992298;28;20042;-80
2022/01/02 02:08:39;;;;;;;13.53;7.23;;;11.60;99.90;;;;;;5008510;28;20040;-82
2022/01/02 02:11:05;;;;;;;14.03;6.90;;;11.60;99.90;;;;;;5006548;28;20104;-82
2022/01/02 02:13:33;;;;;;;16.60;7.27;;;11.70;99.90;;;;;;5009374;28;20073;-81
2022/01/02 02:16:03;;;;;;;19.00;7.00;;;11.70;99.90;;;;;;4976041;28;20050;-81
2022/01/02 02:18:29;;;;;;;15.30;6.87;;;11.60;99.90;;;;;;4985614;28;20049;-81
2022/01/02 02:20:56;;;;;;;14.67;7.20;;;11.70;99.90;;;;;;4992315;28;20125;-81
2022/01/02 02:23:27;;;;;;;18.97;7.63;;;11.60;99.90;;;;;;4985327;28;20042;-81
2022/01/02 02:25:52;;;;;;;17.70;7.00;;;11.60;99.90;;;;;;4990903;28;20088;-81
2022/01/02 02:28:19;;;;;;;16.10;7.70;;;11.60;99.90;;;;;;4992572;28;20049;-81
2022/01/02 02:30:49;;;;;;;14.77;7.10;;;11.60;99.90;;;;;;5007961;28;20038;-80
2022/01/02 02:33:16;;;;;;;14.37;7.13;;;11.60;99.90;;;;;;4987151;28;20061;-80
2022/01/02 02:35:44;;;;;;;15.20;7.33;;;11.60;99.90;;;;;;5009378;28;20914;-81
2022/01/02 02:38:12;;;;;;;16.53;7.00;;;11.60;99.90;;;;;;4994033;28;20050;-80
2022/01/02 02:40:39;;;;;;;14.07;7.83;;;11.60;99.90;;;;;;4978245;28;20492;-80
2022/01/02 02:43:23;;;;;;;17.97;7.47;;;11.60;99.90;;;;;;4995158;28;20491;-80
2022/01/02 02:51:25;;;;;;;16.90;7.73;;;11.60;99.90;;;;;;5009369;28;19917;-81
2022/01/02 02:53:53;;;;;;;16.63;7.60;;;11.60;99.90;;;;;;4993266;28;20033;-80
2022/01/02 02:56:26;;;;;;;22.97;8.10;;;11.50;99.90;;;;;;4980145;28;20450;-81
2022/01/02 02:58:56;;;;;;;19.10;8.20;;;11.60;99.90;;;;;;4998072;28;20042;-80
2022/01/02 03:01:25;;;;;;;15.87;8.27;;;11.60;99.90;;;;;;4980710;28;20493;-81
2022/01/02 03:03:52;;;;;;;18.57;7.87;;;11.50;99.90;;;;;;5011695;28;20065;-81
2022/01/02 03:06:19;;;;;;;13.87;7.60;;;11.60;99.90;;;;;;5011519;28;20038;-81
2022/01/02 03:08:46;;;;;;;21.50;7.80;;;11.60;99.90;;;;;;5003351;28;20053;-80
2022/01/02 03:11:16;;;;;;;20.27;7.83;;;11.60;99.90;;;;;;5008213;28;20065;-80
2022/01/02 03:13:43;;;;;;;23.90;9.23;;;11.60;99.90;;;;;;5025333;28;20042;-80
2022/01/02 03:16:09;;;;;;;18.60;8.33;;;11.60;99.90;;;;;;4986183;28;20404;-81
2022/01/02 03:18:35;;;;;;;18.90;8.63;;;11.60;99.90;;;;;;4979753;28;20038;-80
2022/01/02 03:21:02;;;;;;;17.33;7.60;;;11.60;99.90;;;;;;4978315;28;20088;-81
2022/01/02 03:23:28;;;;;;;18.53;7.73;;;11.60;99.90;;;;;;4989816;28;20108;-81
2022/01/02 03:25:55;;;;;;;17.33;7.47;;;11.60;99.90;;;;;;4993878;28;20034;-82
2022/01/02 03:28:23;;;;;;;16.73;7.73;;;11.50;99.90;;;;;;4973374;28;20073;-81
2022/01/02 03:30:49;;;;;;;17.47;7.20;;;11.60;99.90;;;;;;5011802;28;20064;-80
2022/01/02 03:33:15;;;;;;;18.40;7.83;;;11.50;99.90;;;;;;5008941;28;20116;-82
2022/01/02 03:35:41;;;;;;;22.37;7.93;;;11.50;99.90;;;;;;4981438;28;20045;-81
2022/01/02 03:38:07;;;;;;;18.87;7.83;;;11.50;99.90;;;;;;5011062;28;20046;-80
2022/01/02 03:40:33;;;;;;;17.30;7.40;;;11.50;99.90;;;;;;4979147;28;20041;-81
2022/01/02 03:42:59;;;;;;;14.47;7.83;;;11.50;99.90;;;;;;5011237;28;20431;-81
2022/01/02 03:45:26;;;;;;;18.00;7.87;;;11.50;99.90;;;;;;4993510;28;20066;-81
2022/01/02 03:47:52;;;;;;;17.13;7.40;;;11.50;99.90;;;;;;4984243;28;20480;-81
2022/01/02 03:50:18;;;;;;;15.30;7.23;;;11.50;99.90;;;;;;4972435;28;20061;-82
2022/01/02 03:52:44;;;;;;;19.53;6.83;;;11.50;99.90;;;;;;4983801;28;20073;-81
2022/01/02 03:55:11;;;;;;;16.67;7.63;;;11.50;99.90;;;;;;4970517;28;20104;-80
2022/01/02 03:57:37;;;;;;;17.90;7.30;;;11.50;99.90;;;;;;5010812;28;20451;-80
2022/01/02 04:00:06;;;;;;;17.33;7.47;;;11.50;99.90;;;;;;4987247;28;20050;-82
2022/01/02 04:02:41;;;;;;;22.57;7.33;;;11.60;99.90;;;;;;5007296;28;20056;-80
2022/01/02 04:05:10;;;;;;;15.87;7.17;;;11.60;99.90;;;;;;4993931;28;20117;-80
2022/01/02 04:07:36;;;;;;;18.40;7.43;;;11.60;99.90;;;;;;4995978;28;20046;-81
2022/01/02 04:10:06;;;;;;;17.63;7.10;;;11.60;99.90;;;;;;4978812;28;20470;-80
2022/01/02 04:12:32;;;;;;;17.77;6.70;;;11.60;99.90;;;;;;5009600;28;20411;-81
2022/01/02 04:14:58;;;;;;;12.73;6.70;;;11.60;99.90;;;;;;4994690;28;20133;-81
2022/01/02 04:17:23;;;;;;;19.90;6.73;;;11.60;99.90;;;;;;4988101;28;20129;-80
2022/01/02 04:19:51;;;;;;;16.10;7.17;;;11.60;99.90;;;;;;4962599;28;20041;-81
2022/01/02 04:22:17;;;;;;;19.63;6.97;;;11.60;99.90;;;;;;5026016;28;20046;-81
2022/01/02 04:24:43;;;;;;;18.27;7.10;;;11.60;99.90;;;;;;4996590;28;20130;-80
2022/01/02 04:27:09;;;;;;;18.40;7.03;;;11.60;99.90;;;;;;4990758;28;20041;-81
2022/01/02 04:29:35;;;;;;;16.67;7.10;;;11.60;99.90;;;;;;5026777;28;20108;-81
2022/01/02 04:32:02;;;;;;;19.47;7.60;;;11.70;99.90;;;;;;4992034;28;20044;-80
2022/01/02 04:34:28;;;;;;;17.97;6.73;;;11.70;99.90;;;;;;5005116;28;20558;-81
2022/01/02 04:36:55;;;;;;;15.20;7.00;;;11.70;99.90;;;;;;4991644;28;20045;-81
2022/01/02 04:39:21;;;;;;;17.13;7.17;;;11.70;99.90;;;;;;4992945;28;20056;-81
2022/01/02 04:41:47;;;;;;;17.43;6.77;;;11.70;99.90;;;;;;5010305;28;20034;-80
2022/01/02 04:44:13;;;;;;;20.80;6.93;;;11.70;99.90;;;;;;4960496;28;20052;-81
2022/01/02 04:46:39;;;;;;;16.17;5.83;;;11.70;99.90;;;;;;4982030;28;20488;-82
2022/01/02 04:49:05;;;;;;;17.47;6.27;;;11.70;99.90;;;;;;4989687;28;20060;-82
2022/01/02 04:51:31;;;;;;;25.97;7.47;;;11.80;99.90;;;;;;4977755;28;20042;-81
2022/01/02 04:53:58;;;;;;;19.70;6.37;;;11.80;99.90;;;;;;4994013;28;20495;-81
2022/01/02 04:56:24;;;;;;;14.40;6.47;;;11.80;99.90;;;;;;4978615;28;20038;-80
2022/01/02 04:58:50;;;;;;;19.80;6.40;;;11.80;99.90;;;;;;4989521;28;20511;-79
2022/01/02 05:01:16;;;;;;;16.83;5.13;;;11.90;99.90;;;;;;4961146;28;20049;-81
2022/01/02 05:03:43;;;;;;;19.47;6.00;;;11.90;99.90;;;;;;5004395;28;20038;-80
2022/01/02 05:06:11;;;;;;;16.03;5.10;;;11.90;99.90;;;;;;4985971;28;20050;-82
2022/01/02 05:08:37;;;;;;;17.97;5.70;;;12.00;99.90;;;;;;4991017;28;20121;-81
2022/01/02 05:11:04;;;;;;;16.03;5.47;;;12.00;99.90;;;;;;4993224;28;20038;-82
2022/01/02 05:13:30;;;;;;;18.53;5.40;;;12.00;99.90;;;;;;4964043;28;20041;-82
2022/01/02 05:15:57;;;;;;;19.90;5.10;;;12.10;99.90;;;;;;4975997;28;20044;-80
2022/01/02 05:18:23;;;;;;;17.80;5.07;;;12.10;99.90;;;;;;4988464;28;20042;-81
2022/01/02 05:20:48;;;;;;;16.47;5.23;;;12.10;99.90;;;;;;5025346;28;20049;-81
2022/01/02 05:23:15;;;;;;;15.73;5.30;;;12.10;99.90;;;;;;4993205;28;20049;-81
2022/01/02 05:25:41;;;;;;;15.00;5.00;;;12.10;99.90;;;;;;4992310;28;20061;-81
2022/01/02 05:28:09;;;;;;;18.60;5.20;;;12.10;99.90;;;;;;4991570;28;20069;-80
2022/01/02 05:30:35;;;;;;;15.77;5.50;;;12.10;99.90;;;;;;4976641;28;20053;-82
2022/01/02 05:33:01;;;;;;;18.23;5.20;;;12.10;99.90;;;;;;5007966;28;20045;-80
2022/01/02 05:35:27;;;;;;;12.47;4.67;;;12.10;99.90;;;;;;4983689;28;20463;-80
2022/01/02 05:37:52;;;;;;;17.43;5.63;;;12.10;99.90;;;;;;5007575;28;20045;-81
2022/01/02 05:40:18;;;;;;;17.10;5.13;;;12.10;99.90;;;;;;4992209;28;20069;-82
2022/01/02 05:42:45;;;;;;;16.37;5.17;;;12.10;99.90;;;;;;5008801;28;20081;-81
2022/01/02 05:45:12;;;;;;;12.33;4.30;;;12.20;99.90;;;;;;5010717;28;20038;-81
2022/01/02 05:47:38;;;;;;;16.73;5.33;;;12.20;99.90;;;;;;5009369;28;20050;-79
2022/01/02 05:50:05;;;;;;;15.13;4.70;;;12.20;99.90;;;;;;4993028;28;20376;-81
2022/01/02 05:52:31;;;;;;;19.10;4.97;;;12.20;99.90;;;;;;4980346;28;20065;-81
2022/01/02 05:54:57;;;;;;;20.13;4.97;;;12.20;99.90;;;;;;5008065;28;20525;-80
2022/01/02 05:57:23;;;;;;;14.13;4.60;;;12.20;99.90;;;;;;4992286;28;20046;-81
2022/01/02 05:59:49;;;;;;;13.30;3.93;;;12.20;99.90;;;;;;4992295;28;20052;-80
2022/01/02 06:02:16;;;;;;;19.13;4.77;;;12.20;99.90;;;;;;5008513;28;20112;-80
2022/01/02 06:04:42;;;;;;;14.73;3.97;;;12.30;99.90;;;;;;4975292;28;20053;-82
2022/01/02 06:07:09;;;;;;;15.03;4.73;;;12.30;99.90;;;;;;5009173;28;20230;-81
2022/01/02 06:09:35;;;;;;;11.17;3.70;;;12.30;99.90;;;;;;4993221;28;20038;-81
2022/01/02 06:12:01;;;;;;;17.07;4.80;;;12.30;99.90;;;;;;5013648;28;20504;-80
2022/01/02 06:14:27;;;;;;;15.33;4.40;;;12.40;99.90;;;;;;4996411;28;20073;-79
2022/01/02 06:16:53;;;;;;;11.30;3.90;;;12.40;99.90;;;;;;4966033;28;20057;-81
2022/01/02 06:19:20;;;;;;;11.30;3.70;;;12.40;99.90;;;;;;5012848;28;20500;-79
2022/01/02 06:21:46;;;;;;;10.37;4.20;;;12.40;99.90;;;;;;4997068;28;20559;-83
2022/01/02 06:24:12;;;;;;;16.03;3.80;;;12.50;99.90;;;;;;4996570;28;20050;-81
2022/01/02 06:26:37;;;;;;;12.83;3.77;;;12.50;99.90;;;;;;4997158;28;20380;-80
2022/01/02 06:29:03;;;;;;;9.97;3.27;;;12.50;99.90;;;;;;4971129;28;20045;-80
2022/01/02 06:31:30;;;;;;;12.93;3.97;;;12.50;99.90;;;;;;4980932;28;20057;-81
2022/01/02 06:33:56;;;;;;;10.53;3.53;;;12.50;99.90;;;;;;5012589;28;20148;-79
2022/01/02 06:36:23;;;;;;;10.03;3.67;;;12.50;99.90;;;;;;4965011;28;20046;-80
2022/01/02 06:38:49;;;;;;;11.83;3.40;;;12.50;99.90;;;;;;5013017;28;20067;-81
2022/01/02 06:41:14;;;;;;;12.13;3.60;;;12.60;99.90;;;;;;5012053;28;20410;-81
2022/01/02 06:43:41;;;;;;;10.70;3.70;;;12.60;99.90;;;;;;4986472;28;20042;-82
2022/01/02 06:46:07;;;;;;;11.73;4.10;;;12.60;99.90;;;;;;4990903;28;20069;-80
2022/01/02 06:48:34;;;;;;;17.90;3.50;;;12.60;99.90;;;;;;4987890;28;20069;-82
2022/01/02 06:50:59;;;;;;;11.50;3.27;;;12.60;99.90;;;;;;4980377;28;20112;-82
2022/01/02 06:53:26;;;;;;;11.07;2.83;;;12.60;99.90;;;;;;4992574;28;20034;-81
2022/01/02 06:55:52;;;;;;;10.17;2.90;;;12.60;99.90;;;;;;4967224;28;20408;-80
2022/01/02 06:58:18;;;;;;;8.17;3.10;;;12.60;99.90;;;;;;4992992;28;20061;-81
2022/01/02 07:00:44;;;;;;;8.53;3.17;;;12.60;99.90;;;;;;4980615;28;20057;-82
2022/01/02 07:03:10;;;;;;;11.43;3.60;;;12.60;99.90;;;;;;4994256;28;20169;-80
2022/01/02 07:05:36;;;;;;;8.80;3.80;;;12.60;99.90;;;;;;4987547;28;20045;-80
2022/01/02 07:08:03;;;;;;;11.90;3.60;;;12.60;99.90;;;;;;4976013;28;20038;-82
2022/01/02 07:10:32;;;;;;;11.70;3.57;;;12.60;99.90;;;;;;4981534;28;20049;-81
2022/01/02 07:12:57;;;;;;;10.20;3.20;;;12.60;99.90;;;;;;4994373;28;20129;-81
2022/01/02 07:15:23;;;;;;;12.57;3.37;;;12.60;99.90;;;;;;4978592;28;20133;-81
2022/01/02 07:17:49;;;;;;;11.53;3.43;;;12.50;99.90;;;;;;5007536;28;20415;-81
2022/01/02 07:20:14;;;;;;;9.63;3.50;;;12.50;99.90;;;;;;5010077;28;20049;-81
2022/01/02 07:22:42;;;;;;;10.83;3.50;;;12.50;99.90;;;;;;5027118;28;20482;-81
2022/01/02 07:25:08;;;;;;;9.20;3.57;;;12.50;99.90;;;;;;5020431;28;20088;-79
2022/01/02 07:27:36;;;;;;;8.80;3.60;;;12.50;99.90;;;;;;4993241;28;20046;-81
2022/01/02 07:30:03;;;;;;;9.33;3.47;;;12.40;99.90;;;;;;5009717;28;20057;-80
2022/01/02 07:32:29;;;;;;;12.60;3.70;;;12.40;99.90;;;;;;4996264;28;20050;-81
2022/01/02 07:34:54;;;;;;;10.70;3.50;;;12.40;99.90;;;;;;5026472;28;20050;-81
2022/01/02 07:37:20;;;;;;;15.30;3.67;;;12.40;99.90;;;;;;4982970;28;20038;-82
2022/01/02 07:39:46;;;;;;;8.43;3.10;;;12.40;99.90;;;;;;4993048;28;20407;-83
2022/01/02 07:42:12;;;;;;;9.10;3.87;;;12.40;99.90;;;;;;5028912;28;20546;-80
2022/01/02 07:44:45;;;;;;;10.43;3.37;;;12.40;99.90;;;;;;4964362;28;20133;-81
2022/01/02 07:47:11;;;;;;;13.03;3.97;;;12.40;99.90;;;;;;5025152;28;20054;-81
2022/01/02 07:49:37;;;;;;;11.57;3.93;;;12.40;99.90;;;;;;4962348;28;20718;-81
2022/01/02 07:52:03;;;;;;;9.47;3.50;;;12.40;99.90;;;;;;5018183;28;20390;-80
2022/01/02 07:54:29;;;;;;;9.97;4.03;;;12.40;99.90;;;;;;5011188;28;20100;-80
2022/01/02 07:56:55;;;;;;;8.97;4.73;;;12.40;99.90;;;;;;4995206;28;20052;-80
2022/01/02 07:59:20;;;;;;;11.97;3.53;;;12.50;99.90;;;;;;4978165;28;20531;-81
2022/01/02 08:01:47;;;;;;;11.30;4.00;;;12.40;99.90;;;;;;4993271;28;20046;-81
2022/01/02 08:04:13;;;;;;;8.40;4.20;;;12.40;99.90;;;;;;4994800;28;20050;-81
2022/01/02 08:06:39;;;;;;;9.60;3.57;;;12.40;99.90;;;;;;4993315;28;20042;-80
2022/01/02 08:09:05;;;;;;;8.97;3.70;;;12.40;99.90;;;;;;4981008;28;20408;-81
2022/01/02 08:11:30;;;;;;;10.17;4.07;;;12.30;99.90;;;;;;4990051;28;20474;-82
2022/01/02 08:13:56;;;;;;;11.37;4.10;;;12.30;99.90;;;;;;4979513;28;20559;-80
2022/01/02 08:16:22;;;;;;;10.53;4.27;;;12.20;99.90;;;;;;4989582;28;20069;-81
2022/01/02 08:18:49;;;;;;;10.60;3.70;;;12.20;99.90;;;;;;5026429;28;20049;-79
2022/01/02 08:21:14;;;;;;;11.33;4.20;;;12.10;99.90;;;;;;4972206;28;20058;-80
2022/01/02 08:23:40;;;;;;;9.27;4.13;;;12.10;99.90;;;;;;5024675;28;20049;-81
2022/01/02 08:26:06;;;;;;;8.80;3.80;;;12.10;99.90;;;;;;5027570;28;20101;-79
2022/01/02 08:28:32;;;;;;;12.53;4.33;;;12.10;99.90;;;;;;5009027;28;20104;-81
2022/01/02 08:30:57;;;;;;;10.70;3.57;;;12.10;99.90;;;;;;4992514;28;20101;-81
2022/01/02 08:33:23;;;;;;;10.57;4.50;;;12.10;99.90;;;;;;4975486;28;20054;-81
2022/01/02 08:35:50;;;;;;;10.67;4.07;;;12.10;99.90;;;;;;4987318;28;20038;-80
2022/01/02 08:38:16;;;;;;;10.63;4.17;;;12.10;99.90;;;;;;4993721;28;20049;-81
2022/01/02 08:40:43;;;;;;;6.30;3.27;;;12.10;99.90;;;;;;5011087;28;20041;-81
2022/01/02 08:43:09;;;;;;;16.80;3.97;;;12.10;99.90;;;;;;4981140;28;20137;-82
2022/01/02 08:45:37;;;;;;;9.20;4.27;;;12.00;99.90;;;;;;5025120;28;20088;-81
2022/01/02 08:48:04;;;;;;;10.97;3.93;;;12.00;99.90;;;;;;4958838;28;20041;-82
2022/01/02 08:50:30;;;;;;;9.37;4.20;;;12.00;99.90;;;;;;4989685;28;20037;-80
2022/01/02 08:52:57;;;;;;;12.00;4.13;;;11.90;99.90;;;;;;5008919;28;20113;-79
2022/01/02 08:55:23;;;;;;;11.60;4.30;;;12.00;99.90;;;;;;5007703;28;20049;-82
2022/01/02 08:57:49;;;;;;;8.83;3.80;;;11.90;99.90;;;;;;4992240;28;20557;-81
2022/01/02 09:00:15;;;;;;;8.47;4.27;;;11.90;99.90;;;;;;4993321;28;20073;-81
2022/01/02 09:02:41;;;;;;;11.33;4.40;;;11.90;99.90;;;;;;4990578;28;20052;-81
2022/01/02 09:05:08;;;;;;;12.67;4.37;;;11.80;99.90;;;;;;4984062;28;20042;-80
2022/01/02 09:07:34;;;;;;;11.33;4.97;;;11.80;99.90;;;;;;4976024;28;20037;-80
2022/01/02 09:10:01;;;;;;;10.67;4.03;;;11.80;99.90;;;;;;5006954;28;20100;-80
2022/01/02 09:12:27;;;;;;;10.33;4.23;;;11.80;99.90;;;;;;5006618;28;20054;-82
2022/01/02 09:14:53;;;;;;;11.87;4.40;;;11.90;99.90;;;;;;4976980;28;20141;-80
2022/01/02 09:17:18;;;;;;;11.37;4.13;;;11.90;99.90;;;;;;4992644;28;20396;-81
2022/01/02 09:19:44;;;;;;;8.63;4.33;;;11.90;99.90;;;;;;5023981;28;20038;-80
2022/01/02 09:22:10;;;;;;;10.40;4.00;;;12.00;99.90;;;;;;4992673;28;20408;-79
2022/01/02 09:24:36;;;;;;;9.33;3.70;;;12.00;99.90;;;;;;4962565;28;20519;-81
2022/01/02 09:27:03;;;;;;;12.90;3.90;;;12.00;99.90;;;;;;5006904;28;20038;-80
2022/01/02 09:29:30;;;;;;;8.50;4.00;;;12.00;99.90;;;;;;4974803;28;20396;-80
2022/01/02 09:31:56;;;;;;;9.77;3.50;;;12.10;99.90;;;;;;4976543;28;20041;-79
2022/01/02 09:34:22;;;;;;;6.77;3.20;;;12.10;99.90;;;;;;4993554;28;20049;-80
2022/01/02 09:36:48;;;;;;;8.57;3.53;;;12.20;99.90;;;;;;4991537;28;20048;-81
2022/01/02 09:39:14;;;;;;;6.97;3.37;;;12.20;99.90;;;;;;4990980;28;20408;-79
2022/01/02 09:41:40;;;;;;;9.83;4.00;;;12.20;99.90;;;;;;4987936;28;20046;-81
2022/01/02 09:44:07;;;;;;;9.07;3.67;;;12.30;99.90;;;;;;5005428;28;20121;-81
2022/01/02 09:46:33;;;;;;;7.60;3.40;;;12.30;99.90;;;;;;4999913;28;20077;-79
2022/01/02 09:49:01;;;;;;;12.23;3.70;;;12.30;99.90;;;;;;4976303;28;20070;-80
2022/01/02 09:51:27;;;;;;;11.07;3.90;;;12.30;99.90;;;;;;4992621;28;20046;-80
2022/01/02 09:53:54;;;;;;;7.40;3.40;;;12.30;99.90;;;;;;5023669;28;20423;-81
2022/01/02 09:56:19;;;;;;;10.03;3.77;;;12.30;99.90;;;;;;4975833;28;20056;-80
2022/01/02 09:58:45;;;;;;;13.07;3.57;;;12.30;99.90;;;;;;5022295;28;20041;-80
2022/01/02 10:01:16;;;;;;;9.73;3.47;;;12.30;99.90;;;;;;5006200;28;20057;-80
2022/01/02 10:03:43;;;;;;;8.70;3.57;;;12.40;99.90;;;;;;4990744;28;20206;-81
2022/01/02 10:06:09;;;;;;;9.33;3.73;;;12.40;99.90;;;;;;5015522;28;20033;-82
2022/01/02 10:08:35;;;;;;;9.83;4.07;;;12.40;99.90;;;;;;5013541;28;20045;-80
2022/01/02 10:11:04;;;;;;;10.07;3.70;;;12.40;99.90;;;;;;5015578;28;20053;-84
2022/01/02 10:13:38;;;;;;;11.50;3.97;;;12.40;99.90;;;;;;4984796;28;20447;-81
2022/01/02 10:16:04;;;;;;;7.82;3.53;;;12.40;99.90;;;;;;4984355;28;20084;-82
2022/01/02 10:18:31;;;;;;;7.93;4.30;;;12.40;99.90;;;;;;4991957;28;20042;-81
2022/01/02 10:20:59;;;;;;;9.87;3.80;;;12.40;99.90;;;;;;4992294;28;20567;-81
2022/01/02 10:23:25;;;;;;;11.47;4.10;;;12.40;99.90;;;;;;4959043;28;20668;-81
2022/01/02 10:25:53;;;;;;;10.27;3.90;;;12.40;99.90;;;;;;4991618;28;20049;-81
2022/01/02 10:28:28;;;;;;;9.53;3.90;;;12.40;99.90;;;;;;4985163;28;20476;-82
2022/01/02 10:30:57;;;;;;;12.10;4.53;;;12.40;99.90;;;;;;4991896;28;20048;-83
2022/01/02 10:33:23;;;;;;;11.90;3.97;;;12.40;99.90;;;;;;5001103;28;20104;-82
2022/01/02 10:35:57;;;;;;;7.63;3.70;;;12.50;99.90;;;;;;4988133;28;20045;-82
2022/01/02 10:38:23;;;;;;;6.40;3.70;;;12.50;99.90;;;;;;4973534;28;20046;-81
2022/01/02 10:40:49;;;;;;;9.50;3.70;;;12.50;99.90;;;;;;4991357;28;20100;-81
2022/01/02 10:43:24;;;;;;;9.43;3.87;;;12.50;99.90;;;;;;5007071;28;20144;-79
2022/01/02 10:45:53;;;;;;;7.43;3.57;;;12.50;99.90;;;;;;4976301;28;20554;-80
2022/01/02 10:48:30;;;;;;;10.47;4.27;;;12.50;99.90;;;;;;4986961;28;20403;-81
2022/01/02 10:51:03;;;;;;;12.50;3.80;;;12.60;99.90;;;;;;4989342;28;20046;-81
2022/01/02 10:53:31;;;;;;;11.38;3.90;;;12.60;99.90;;;;;;4998087;28;20464;-81
2022/01/02 10:55:57;;;;;;;9.53;3.97;;;12.70;99.90;;;;;;5003770;28;20107;-82
2022/01/02 10:58:25;;;;;;;7.90;4.00;;;12.70;99.90;;;;;;4971824;28;20125;-80
2022/01/02 11:00:50;;;;;;;7.40;3.93;;;12.70;99.90;;;;;;4967642;28;20075;-81
2022/01/02 11:03:22;;;;;;;11.80;4.20;;;12.80;99.90;;;;;;4993349;28;20046;-81
2022/01/02 11:05:50;;;;;;;9.77;3.60;;;12.90;99.90;;;;;;5007390;28;20531;-81
2022/01/02 11:08:19;;;;;;;14.20;3.93;;;12.90;99.90;;;;;;4975594;28;20053;-79
2022/01/02 11:10:46;;;;;;;8.53;3.47;;;12.90;99.90;;;;;;4992020;28;20050;-81
2022/01/02 11:13:13;;;;;;;8.57;3.90;;;12.80;99.90;;;;;;4991509;28;20418;-82
2022/01/02 11:15:39;;;;;;;6.27;3.63;;;12.80;99.90;;;;;;4984553;28;20048;-81
2022/01/02 11:18:05;;;;;;;9.37;3.93;;;12.80;99.90;;;;;;4978862;28;20037;-81
2022/01/02 11:20:34;;;;;;;12.37;4.23;;;12.70;99.90;;;;;;4979581;28;20038;-81
2022/01/02 11:23:12;;;;;;;8.53;3.90;;;12.70;99.90;;;;;;4971296;28;20030;-81
2022/01/02 11:25:49;;;;;;;11.63;4.47;;;12.70;99.90;;;;;;5024803;28;20156;-80
2022/01/02 11:28:32;;;;;;;7.57;3.90;;;12.60;99.90;;;;;;4961998;28;20053;-80
2022/01/02 11:30:58;;;;;;;10.73;4.10;;;12.60;99.90;;;;;;4991296;28;20124;-79
2022/01/02 11:33:30;;;;;;;9.10;3.80;;;12.50;99.90;;;;;;5006589;28;20128;-79
2022/01/02 11:35:58;;;;;;;13.07;4.33;;;12.50;99.90;;;;;;4975902;28;20052;-81
2022/01/02 11:38:26;;;;;;;10.10;3.87;;;12.50;99.90;;;;;;4973558;28;20089;-79
2022/01/02 11:40:57;;;;;;;11.17;3.90;;;12.50;99.90;;;;;;5007710;28;20053;-82
2022/01/02 11:43:53;;;;;;;9.83;3.73;;;12.50;99.90;;;;;;4994052;28;20045;-82
2022/01/02 11:46:22;;;;;;;9.03;4.40;;;12.50;99.90;;;;;;4990999;28;20491;-79
2022/01/02 11:49:27;;;;;;;12.20;4.17;;;12.50;99.90;;;;;;4964891;28;20112;-80
2022/01/02 11:52:02;;;;;;;10.30;4.13;;;12.50;99.90;;;;;;4992579;28;20045;-81
2022/01/02 11:54:46;;;;;;;11.70;3.87;;;12.50;99.90;;;;;;4994069;28;20057;-83
2022/01/02 11:57:51;;;;;;;11.32;4.18;;;12.50;99.90;;;;;;4991604;28;20046;-80
2022/01/02 12:00:44;;;;;;;10.33;3.90;;;12.40;99.90;;;;;;5023924;28;20133;-81
2022/01/02 12:03:46;;;;;;;8.20;4.43;;;12.40;99.90;;;;;;5006126;28;20096;-81
2022/01/02 12:06:18;;;;;;;9.57;3.67;;;12.40;99.90;;;;;;4988616;28;20053;-81
2022/01/02 12:08:44;;;;;;;8.23;3.73;;;12.40;99.90;;;;;;5009178;28;20053;-81
2022/01/02 12:11:36;;;;;;;9.53;3.50;;;12.40;99.90;;;;;;5015883;28;20046;-81
2022/01/02 12:14:03;;;;;;;11.83;4.37;;;12.40;99.90;;;;;;5025432;28;20554;-81
2022/01/02 12:16:41;;;;;;;11.23;3.73;;;12.40;99.90;;;;;;4991255;28;20049;-80
2022/01/02 12:19:08;;;;;;;13.23;4.17;;;12.40;99.90;;;;;;5015669;28;20082;-82
2022/01/02 12:21:35;;;;;;;10.53;3.07;;;12.40;99.90;;;;;;4991904;28;20041;-82
2022/01/02 12:24:04;;;;;;;13.23;3.20;;;12.40;99.90;;;;;;5026006;28;20041;-80
2022/01/02 12:26:32;;;;;;;15.33;3.83;;;12.40;99.90;;;;;;4973495;28;20128;-81
2022/01/02 12:29:05;;;;;;;15.13;3.67;;;12.40;99.90;;;;;;4991073;28;20048;-82
2022/01/02 12:31:32;;;;;;;13.80;2.90;;;12.40;99.90;;;;;;5008649;28;20486;-80
2022/01/02 12:34:09;;;;;;;11.43;3.03;;;12.40;99.90;;;;;;4992967;28;20133;-80
2022/01/02 12:36:35;;;;;;;11.27;2.87;;;12.40;99.90;;;;;;4978011;28;20037;-81
2022/01/02 12:39:03;;;;;;;13.07;2.80;;;12.40;99.90;;;;;;5008601;28;20038;-81
2022/01/02 12:41:31;;;;;;;14.97;3.13;;;12.40;99.90;;;;;;4976997;28;20049;-82
2022/01/02 12:43:59;;;;;;;12.97;3.20;;;12.40;99.90;;;;;;5007912;28;20049;-82
2022/01/02 12:46:33;;;;;;;12.87;3.10;;;12.40;99.90;;;;;;4964311;28;20066;-81
2022/01/02 12:49:00;;;;;;;15.77;3.22;;;12.50;99.90;;;;;;4993848;28;20073;-79